logo
Rechercher aéroport 
image banner adimage banner adimage banner ad
image banner ad

FAAUGR - Augrabies

Situé à , South Africa

ICAO - , IATA -

Données fournies par Airmate  

Information générale

Coordonnées: S28°37'48" E20°19'12"
Élévation : 2201 feet MSL.
 
Évalué:
Voir évaluations:
[VIEW]
Voir autres Aéroports à Northern Cape

Données opérationnelles

Special qualification required
Heure actuelle UTC:
Heure actuelle locale:
Météo à : - ( 0 km )
METAR: UUOK 172037Z AUTO 24004MPS 8000 // ///008/// 19/18 Q1009 RMK QFE739/0986
Voir NOTAMs / SUP AIP / TFR affectant cet aéroport [VIEW]
Fréquences de communication: [VIEW]

Pistes:

Identifiant RWYQFULongueur (ft)Largeur (ft)SurfaceLDA (ft)
0880°426566SAND
26260°426566SAND

Coordonnées de l'aéroport

Adresse: South Africa

Autres services

Hôtels

Dundi Lodge

Dundi Lodge
Évalué:
Voir évaluations:
[VIEW]

Vue satellite de FAAUGR